Time;durP1;ratioP1;P1;durP2;ratioP2;P2;SDS_P1;SDS_P2;PMS_P1;PMS_P2;Temp;Humidity;BMP_temperature;BMP_pressure;BME280_temperature;BME280_humidity;BME280_pressure;Samples;Min_cycle;Max_cycle;Signal;HPM_P1;HPM_P2
2023/12/25 00:01:01;;;;;;;1.53;0.80;;;;;;;12.94;nan;99510.53;4992379;28;20801;-80
2023/12/25 00:03:30;;;;;;;1.20;0.80;;;;;;;12.95;nan;99521.91;4990728;28;20909;-80
2023/12/25 00:05:55;;;;;;;1.80;0.77;;;;;;;12.90;nan;99519.59;4993600;28;20202;-80
2023/12/25 00:08:20;;;;;;;0.70;0.70;;;;;;;12.87;nan;99524.28;4993100;28;20195;-80
2023/12/25 00:10:46;;;;;;;1.27;0.83;;;;;;;12.83;nan;99534.22;4992425;28;20935;-80
2023/12/25 00:13:12;;;;;;;0.90;0.73;;;;;;;12.79;nan;99533.56;4992985;28;20207;-80
2023/12/25 00:15:37;;;;;;;1.17;0.70;;;;;;;12.73;nan;99528.75;4993399;28;20661;-80
2023/12/25 00:18:05;;;;;;;1.00;0.90;;;;;;;12.71;nan;99535.94;4993208;28;20203;-81
2023/12/25 00:20:31;;;;;;;0.80;0.60;;;;;;;12.63;nan;99539.13;4990487;28;20215;-80
2023/12/25 00:22:56;;;;;;;1.20;0.90;;;;;;;12.62;nan;99555.91;4992709;28;20199;-80
2023/12/25 00:25:22;;;;;;;1.10;0.70;;;;;;;12.59;nan;99561.41;4990860;28;20228;-81
2023/12/25 00:27:47;;;;;;;1.80;0.90;;;;;;;12.56;nan;99556.38;4992394;28;20384;-80
2023/12/25 00:30:14;;;;;;;0.80;0.70;;;;;;;12.55;nan;99552.03;4989211;28;20455;-81
2023/12/25 00:32:39;;;;;;;6.40;0.95;;;;;;;12.56;nan;99532.66;4991922;28;20199;-81
2023/12/25 00:35:05;;;;;;;1.03;0.93;;;;;;;12.55;nan;99540.66;4986507;28;20341;-82
2023/12/25 00:37:30;;;;;;;0.80;0.70;;;;;;;12.50;nan;99525.19;4989852;28;20207;-81
2023/12/25 00:39:56;;;;;;;1.77;0.77;;;;;;;12.49;nan;99534.03;4990838;28;20301;-81
2023/12/25 00:42:22;;;;;;;1.07;0.80;;;;;;;12.47;nan;99517.50;4985571;28;20587;-81
2023/12/25 00:44:47;;;;;;;0.97;0.70;;;;;;;12.46;nan;99520.25;4990087;28;20230;-81
2023/12/25 00:47:13;;;;;;;1.20;0.70;;;;;;;12.46;nan;99499.19;4989578;28;20532;-81
2023/12/25 00:49:38;;;;;;;2.70;1.10;;;;;;;12.44;nan;99490.53;4990073;28;20211;-81
2023/12/25 00:52:04;;;;;;;1.63;0.80;;;;;;;12.44;nan;99499.28;4990440;28;20199;-81
2023/12/25 00:54:31;;;;;;;0.93;0.80;;;;;;;12.46;nan;99500.00;4986573;28;20675;-80
2023/12/25 00:56:57;;;;;;;1.10;0.80;;;;;;;12.40;nan;99511.00;4988507;28;20262;-80
2023/12/25 00:59:22;;;;;;;0.80;0.75;;;;;;;12.41;nan;99512.69;4990795;28;20230;-80
2023/12/25 01:01:48;;;;;;;0.93;0.83;;;;;;;12.43;nan;99497.59;4988032;28;20356;-80
2023/12/25 01:04:13;;;;;;;1.33;0.70;;;;;;;12.40;nan;99509.22;4994202;28;20583;-80
2023/12/25 01:06:39;;;;;;;1.00;0.80;;;;;;;12.39;nan;99489.09;4994870;28;20210;-80
2023/12/25 01:09:05;;;;;;;1.10;0.75;;;;;;;12.36;nan;99501.63;4997874;28;20663;-80
2023/12/25 01:11:31;;;;;;;0.70;0.60;;;;;;;12.34;nan;99493.00;4993249;28;20226;-80
2023/12/25 01:13:57;;;;;;;0.70;0.70;;;;;;;12.31;nan;99490.59;4994447;28;20598;-79
2023/12/25 01:16:23;;;;;;;0.70;0.60;;;;;;;12.33;nan;99478.16;5011999;28;20195;-80
2023/12/25 01:18:55;;;;;;;1.83;0.80;;;;;;;12.33;nan;99473.72;4994037;28;20198;-80
2023/12/25 01:21:20;;;;;;;0.70;0.70;;;;;;;12.31;nan;99483.56;4996236;28;20411;-81
2023/12/25 01:23:46;;;;;;;0.70;0.70;;;;;;;12.34;nan;99474.56;4989303;28;20845;-80
2023/12/25 01:26:13;;;;;;;0.90;0.68;;;;;;;12.33;nan;99483.41;4987931;28;20215;-80
2023/12/25 01:28:39;;;;;;;0.80;0.60;;;;;;;12.35;nan;99481.53;4980216;28;20257;-79
2023/12/25 01:31:05;;;;;;;0.70;0.70;;;;;;;12.30;nan;99473.94;4983306;28;20576;-79
2023/12/25 01:33:31;;;;;;;1.33;1.00;;;;;;;12.30;nan;99478.38;4982346;28;20191;-79
2023/12/25 01:35:56;;;;;;;0.87;0.63;;;;;;;12.30;nan;99479.22;4981180;28;20199;-79
2023/12/25 01:38:22;;;;;;;0.80;0.80;;;;;;;12.27;nan;99484.72;4979141;28;20434;-79
2023/12/25 01:40:47;;;;;;;1.43;0.90;;;;;;;12.29;nan;99490.72;4984567;28;20238;-79
2023/12/25 01:43:13;;;;;;;0.90;0.70;;;;;;;12.29;nan;99500.41;4983987;28;20617;-81
2023/12/25 01:45:38;;;;;;;0.90;0.63;;;;;;;12.30;nan;99496.81;4982385;28;20207;-79
2023/12/25 01:48:06;;;;;;;1.10;0.67;;;;;;;12.25;nan;99488.41;4984211;28;20202;-79
2023/12/25 01:50:34;;;;;;;1.08;0.70;;;;;;;12.25;nan;99496.31;4984449;28;20194;-78
2023/12/25 01:53:01;;;;;;;1.88;0.80;;;;;;;12.24;nan;99484.94;4986326;28;20202;-79
2023/12/25 01:55:27;;;;;;;0.70;0.70;;;;;;;12.24;nan;99507.81;4996759;28;20214;-80
2023/12/25 01:57:53;;;;;;;0.90;0.70;;;;;;;12.19;nan;99502.88;4981056;28;20207;-79
2023/12/25 02:00:18;;;;;;;1.10;0.70;;;;;;;12.24;nan;99513.06;4979660;28;20679;-79
2023/12/25 02:02:45;;;;;;;1.00;0.73;;;;;;;12.25;nan;99506.84;4986442;28;20207;-79
2023/12/25 02:05:11;;;;;;;0.75;0.60;;;;;;;12.22;nan;99504.44;4984446;28;20211;-79
2023/12/25 02:07:40;;;;;;;0.70;0.70;;;;;;;12.20;nan;99509.78;4984861;28;20258;-79
2023/12/25 02:10:07;;;;;;;0.70;0.60;;;;;;;12.21;nan;99503.59;4984460;28;20195;-80
2023/12/25 02:12:33;;;;;;;0.82;0.70;;;;;;;12.20;nan;99504.53;4984643;28;20199;-79
2023/12/25 02:15:01;;;;;;;1.00;0.70;;;;;;;12.16;nan;99513.63;4984800;28;20214;-79
2023/12/25 02:17:27;;;;;;;0.80;0.80;;;;;;;12.17;nan;99502.97;4987779;28;20214;-79
2023/12/25 02:19:53;;;;;;;0.90;0.80;;;;;;;12.15;nan;99493.47;5002087;28;20275;-79
2023/12/25 02:22:19;;;;;;;1.00;0.70;;;;;;;12.14;nan;99487.38;4993044;28;20199;-79
2023/12/25 02:24:55;;;;;;;1.40;0.80;;;;;;;12.17;nan;99497.69;4990407;28;20241;-78
2023/12/25 02:27:20;;;;;;;0.70;0.60;;;;;;;12.17;nan;99502.97;5002376;28;21000;-79
2023/12/25 02:29:46;;;;;;;1.07;0.83;;;;;;;12.15;nan;99502.25;4990999;28;20222;-80
2023/12/25 02:32:11;;;;;;;1.00;0.60;;;;;;;12.11;nan;99497.31;4988444;28;20207;-81
2023/12/25 02:34:36;;;;;;;0.80;0.80;;;;;;;12.11;nan;99502.56;4992519;28;20207;-81
2023/12/25 02:37:02;;;;;;;0.60;0.60;;;;;;;12.10;nan;99506.16;4988761;28;20306;-81
2023/12/25 02:39:27;;;;;;;1.33;0.80;;;;;;;12.10;nan;99519.34;4997086;28;20318;-81
2023/12/25 02:41:53;;;;;;;1.60;0.70;;;;;;;12.10;nan;99521.97;4997999;28;20215;-81
2023/12/25 02:44:18;;;;;;;1.27;0.93;;;;;;;12.09;nan;99510.56;4986931;28;20234;-81
2023/12/25 02:46:44;;;;;;;1.00;0.80;;;;;;;12.07;nan;99499.31;4991969;28;20258;-81
2023/12/25 02:49:09;;;;;;;0.70;0.70;;;;;;;12.07;nan;99517.75;4987295;28;20333;-79
2023/12/25 02:51:35;;;;;;;0.97;0.53;;;;;;;12.11;nan;99505.22;4987385;28;20604;-79
2023/12/25 02:54:00;;;;;;;3.27;0.77;;;;;;;12.09;nan;99509.72;4987638;28;20207;-80
2023/12/25 02:56:25;;;;;;;1.17;0.80;;;;;;;12.08;nan;99516.78;5005768;28;20218;-80
2023/12/25 02:58:51;;;;;;;0.80;0.70;;;;;;;12.11;nan;99500.78;4988843;28;21032;-80
2023/12/25 03:01:16;;;;;;;0.70;0.67;;;;;;;12.11;nan;99508.66;4986078;28;20211;-80
2023/12/25 03:03:41;;;;;;;0.80;0.70;;;;;;;12.07;nan;99515.13;4991239;28;20202;-81
2023/12/25 03:06:08;;;;;;;1.40;0.80;;;;;;;12.10;nan;99514.91;4990822;28;20446;-81
2023/12/25 03:08:34;;;;;;;0.80;0.70;;;;;;;12.08;nan;99502.78;4992103;28;20195;-81
2023/12/25 03:11:00;;;;;;;0.87;0.73;;;;;;;12.07;nan;99514.25;4988825;28;20206;-81
2023/12/25 03:13:25;;;;;;;0.90;0.70;;;;;;;12.03;nan;99511.00;4987503;28;20211;-80
2023/12/25 03:15:53;;;;;;;1.00;0.80;;;;;;;12.02;nan;99514.59;4988347;28;20237;-81
2023/12/25 03:18:18;;;;;;;0.80;0.70;;;;;;;12.04;nan;99509.22;4989623;28;20203;-81
2023/12/25 03:20:44;;;;;;;1.13;0.83;;;;;;;12.02;nan;99509.34;4989626;28;20219;-80
2023/12/25 03:23:09;;;;;;;0.90;0.70;;;;;;;11.99;nan;99500.81;4989941;28;20748;-81
2023/12/25 03:25:34;;;;;;;1.27;0.80;;;;;;;11.96;nan;99493.97;4991886;28;20310;-81
2023/12/25 03:28:00;;;;;;;0.80;0.70;;;;;;;11.86;nan;99485.91;4985838;28;20195;-81
2023/12/25 03:30:25;;;;;;;1.17;0.87;;;;;;;11.85;nan;99494.69;4988348;28;20990;-80
2023/12/25 03:32:50;;;;;;;1.33;0.77;;;;;;;11.86;nan;99498.22;4980326;28;20226;-81
2023/12/25 03:35:17;;;;;;;1.15;0.93;;;;;;;11.82;nan;99504.59;4978717;28;20218;-81
2023/12/25 03:37:43;;;;;;;1.20;0.87;;;;;;;11.82;nan;99505.44;4979479;28;20187;-81
2023/12/25 03:40:09;;;;;;;0.80;0.80;;;;;;;11.80;nan;99504.72;4987278;28;20223;-80
2023/12/25 03:42:43;;;;;;;1.50;0.80;;;;;;;11.76;nan;99505.88;4991617;28;20529;-80
2023/12/25 03:45:09;;;;;;;1.10;0.77;;;;;;;11.72;nan;99514.94;4989536;28;20485;-80
2023/12/25 03:47:34;;;;;;;0.93;0.70;;;;;;;11.64;nan;99514.66;4986388;28;20387;-80
2023/12/25 03:49:59;;;;;;;1.40;0.70;;;;;;;11.65;nan;99513.69;4988992;28;20256;-81
2023/12/25 03:52:25;;;;;;;1.30;0.90;;;;;;;11.64;nan;99520.75;4984540;28;20223;-80
2023/12/25 03:54:51;;;;;;;1.43;1.00;;;;;;;11.61;nan;99515.69;4990670;28;21093;-81
2023/12/25 03:57:16;;;;;;;0.90;0.67;;;;;;;11.61;nan;99512.19;4987180;28;20663;-80
2023/12/25 03:59:42;;;;;;;0.83;0.80;;;;;;;11.58;nan;99513.25;4989038;28;20207;-81
2023/12/25 04:02:07;;;;;;;0.93;0.70;;;;;;;11.58;nan;99500.09;4985362;28;20198;-81
2023/12/25 04:04:33;;;;;;;1.00;0.70;;;;;;;11.53;nan;99507.50;4988594;28;20211;-81
2023/12/25 04:06:58;;;;;;;1.93;0.80;;;;;;;11.50;nan;99513.81;4990737;28;20221;-80
2023/12/25 04:09:24;;;;;;;1.17;0.80;;;;;;;11.51;nan;99519.91;4987927;28;20288;-81
2023/12/25 04:11:49;;;;;;;0.83;0.63;;;;;;;11.50;nan;99515.56;4987912;28;20344;-80
2023/12/25 04:14:14;;;;;;;1.10;0.70;;;;;;;11.44;nan;99535.25;4987609;28;20199;-80
2023/12/25 04:16:40;;;;;;;0.70;0.67;;;;;;;11.44;nan;99523.88;4987595;28;20203;-80
2023/12/25 04:19:05;;;;;;;1.00;0.80;;;;;;;11.42;nan;99531.91;4986416;28;20330;-81
2023/12/25 04:21:31;;;;;;;0.67;0.63;;;;;;;11.42;nan;99525.78;4991047;28;20211;-80
2023/12/25 04:23:58;;;;;;;1.10;0.82;;;;;;;11.39;nan;99529.47;4985698;28;20206;-80
2023/12/25 04:26:24;;;;;;;1.25;0.90;;;;;;;11.35;nan;99524.53;4989625;28;20241;-80
2023/12/25 04:28:51;;;;;;;1.23;1.10;;;;;;;11.32;nan;99522.94;4985499;28;20909;-80
2023/12/25 04:31:17;;;;;;;3.08;1.95;;;;;;;11.28;nan;99514.41;4986954;28;20632;-81
2023/12/25 04:33:42;;;;;;;1.17;0.70;;;;;;;11.26;nan;99515.47;4987880;28;20214;-80
2023/12/25 04:36:08;;;;;;;0.70;0.70;;;;;;;11.21;nan;99517.59;4988150;28;20530;-80
2023/12/25 04:38:35;;;;;;;1.00;0.70;;;;;;;11.20;nan;99502.75;4989282;28;20230;-81
2023/12/25 04:41:00;;;;;;;0.90;0.75;;;;;;;11.16;nan;99504.75;4987473;28;20573;-80
2023/12/25 04:43:26;;;;;;;1.00;0.90;;;;;;;11.15;nan;99495.19;4990768;28;20203;-81
2023/12/25 04:45:51;;;;;;;1.43;0.90;;;;;;;11.13;nan;99491.81;4998622;28;20227;-81
2023/12/25 04:48:17;;;;;;;0.90;0.70;;;;;;;11.12;nan;99489.28;4998516;28;20187;-81
2023/12/25 04:50:44;;;;;;;0.93;0.67;;;;;;;11.10;nan;99497.28;4996965;28;20227;-81
2023/12/25 04:53:10;;;;;;;1.52;1.20;;;;;;;11.09;nan;99506.09;4995902;28;20210;-82
2023/12/25 04:55:36;;;;;;;0.90;0.73;;;;;;;11.03;nan;99504.72;4994214;28;20459;-80
2023/12/25 04:58:02;;;;;;;1.15;0.80;;;;;;;10.99;nan;99516.41;4988726;28;20198;-80
2023/12/25 05:00:28;;;;;;;0.97;0.70;;;;;;;10.97;nan;99507.75;4988184;28;20222;-81
2023/12/25 05:02:53;;;;;;;1.07;0.97;;;;;;;10.93;nan;99510.69;4986541;28;20552;-81
2023/12/25 05:05:19;;;;;;;2.07;0.80;;;;;;;10.92;nan;99499.34;4986653;28;20218;-80
2023/12/25 05:07:45;;;;;;;1.00;0.70;;;;;;;10.87;nan;99503.22;4988738;28;20277;-80
2023/12/25 05:10:10;;;;;;;1.57;1.07;;;;;;;10.89;nan;99498.72;4991245;28;20222;-82
2023/12/25 05:12:36;;;;;;;0.80;0.70;;;;;;;10.90;nan;99518.78;4987788;28;20445;-80
2023/12/25 05:15:01;;;;;;;1.00;0.70;;;;;;;10.88;nan;99511.00;4991162;28;20683;-81
2023/12/25 05:17:27;;;;;;;1.20;1.10;;;;;;;10.85;nan;99514.69;4986993;28;20222;-79
2023/12/25 05:19:53;;;;;;;1.17;1.00;;;;;;;10.81;nan;99515.81;4991713;28;20360;-80
2023/12/25 05:22:18;;;;;;;1.93;1.07;;;;;;;10.77;nan;99511.69;4989009;28;20273;-80
2023/12/25 05:24:43;;;;;;;0.80;0.70;;;;;;;10.75;nan;99518.88;4990669;28;20313;-80
2023/12/25 05:27:09;;;;;;;1.37;1.07;;;;;;;10.80;nan;99516.78;4995595;28;20668;-80
2023/12/25 05:29:34;;;;;;;0.70;0.70;;;;;;;10.73;nan;99531.25;4997320;28;20514;-81
2023/12/25 05:32:00;;;;;;;0.70;0.70;;;;;;;10.72;nan;99521.69;4991789;28;20428;-81
2023/12/25 05:34:27;;;;;;;1.27;1.00;;;;;;;10.72;nan;99528.72;4983878;28;20913;-80
2023/12/25 05:36:52;;;;;;;1.00;0.80;;;;;;;10.70;nan;99528.81;4989567;28;20199;-80
2023/12/25 05:39:18;;;;;;;0.80;0.70;;;;;;;10.67;nan;99526.41;4989113;28;20191;-80
2023/12/25 05:41:43;;;;;;;1.53;0.80;;;;;;;10.67;nan;99520.31;4987906;28;20309;-80
2023/12/25 05:44:09;;;;;;;0.70;0.70;;;;;;;10.62;nan;99513.56;4988756;28;20234;-81
2023/12/25 05:46:36;;;;;;;0.90;0.90;;;;;;;10.61;nan;99500.50;4987915;28;20195;-81
2023/12/25 05:49:01;;;;;;;1.00;0.80;;;;;;;10.59;nan;99511.13;4982761;28;20233;-80
2023/12/25 05:51:27;;;;;;;0.80;0.70;;;;;;;10.55;nan;99501.75;4982484;28;20183;-82
2023/12/25 05:53:55;;;;;;;0.87;0.70;;;;;;;10.53;nan;99508.91;4990819;28;20477;-81
2023/12/25 05:56:20;;;;;;;1.00;0.90;;;;;;;10.55;nan;99490.41;4993669;28;20756;-81
2023/12/25 05:58:46;;;;;;;0.90;0.83;;;;;;;10.54;nan;99494.84;4985947;28;20273;-80
2023/12/25 06:01:13;;;;;;;1.40;0.80;;;;;;;10.51;nan;99499.47;4987868;28;20207;-80
2023/12/25 06:03:41;;;;;;;1.30;0.90;;;;;;;10.46;nan;99512.88;4986869;28;20253;-82
2023/12/25 06:06:07;;;;;;;1.10;1.00;;;;;;;10.47;nan;99511.91;4988883;28;20438;-80
2023/12/25 06:08:33;;;;;;;1.20;1.00;;;;;;;10.47;nan;99511.91;4986296;28;20238;-80
2023/12/25 06:10:58;;;;;;;1.57;0.90;;;;;;;10.44;nan;99498.16;4983354;28;20269;-81
2023/12/25 06:13:24;;;;;;;0.77;0.70;;;;;;;10.39;nan;99501.06;4979352;28;21178;-80
2023/12/25 06:15:50;;;;;;;4.30;1.30;;;;;;;10.43;nan;99507.00;4978794;28;20284;-80
2023/12/25 06:18:16;;;;;;;1.27;0.90;;;;;;;10.41;nan;99497.41;4982981;28;20449;-79
2023/12/25 06:20:41;;;;;;;0.70;0.70;;;;;;;10.40;nan;99502.78;4982593;28;20219;-81
2023/12/25 06:23:07;;;;;;;1.23;0.70;;;;;;;10.39;nan;99498.44;4986678;28;20199;-80
2023/12/25 06:25:33;;;;;;;1.00;0.90;;;;;;;10.38;nan;99513.38;4980945;28;20223;-81
2023/12/25 06:27:58;;;;;;;0.97;0.87;;;;;;;10.38;nan;99523.88;4981606;28;20973;-80
2023/12/25 06:30:24;;;;;;;3.30;1.10;;;;;;;10.39;nan;99519.44;4983577;28;20930;-80
2023/12/25 06:32:50;;;;;;;0.73;0.70;;;;;;;10.36;nan;99523.13;4983437;28;20191;-80
2023/12/25 06:35:15;;;;;;;1.10;1.00;;;;;;;10.31;nan;99524.34;4985713;28;20198;-82
2023/12/25 06:37:40;;;;;;;0.70;0.70;;;;;;;10.34;nan;99534.66;4986942;28;20278;-81
2023/12/25 06:40:06;;;;;;;0.60;0.60;;;;;;;10.28;nan;99541.16;4988969;28;20221;-81
2023/12/25 06:42:32;;;;;;;0.90;0.80;;;;;;;10.27;nan;99542.09;4987462;28;20556;-81
2023/12/25 06:44:57;;;;;;;3.80;1.07;;;;;;;10.27;nan;99541.22;4989367;28;20242;-80
2023/12/25 06:47:23;;;;;;;2.20;0.90;;;;;;;10.24;nan;99546.69;4987996;28;20199;-80
2023/12/25 06:49:48;;;;;;;0.73;0.73;;;;;;;10.23;nan;99540.56;4987059;28;20675;-81
2023/12/25 06:52:14;;;;;;;1.10;0.90;;;;;;;10.24;nan;99539.63;4987338;28;20281;-80
2023/12/25 06:54:39;;;;;;;1.00;0.80;;;;;;;10.21;nan;99529.34;4985096;28;20238;-80
2023/12/25 06:57:04;;;;;;;0.70;0.70;;;;;;;10.21;nan;99534.59;4986638;28;20223;-80
2023/12/25 06:59:30;;;;;;;1.10;0.80;;;;;;;10.21;nan;99531.97;4985508;28;20191;-80
2023/12/25 07:01:55;;;;;;;1.00;0.83;;;;;;;10.19;nan;99520.72;4986854;28;20320;-80
2023/12/25 07:04:22;;;;;;;1.40;1.03;;;;;;;10.16;nan;99529.63;4995215;28;20233;-80
2023/12/25 07:06:48;;;;;;;1.08;0.98;;;;;;;10.19;nan;99536.44;4991850;28;20197;-80
2023/12/25 07:09:14;;;;;;;1.47;0.97;;;;;;;10.15;nan;99558.56;4995274;28;20758;-80
2023/12/25 07:11:41;;;;;;;2.15;1.92;;;;;;;10.14;nan;99560.34;5000605;28;20851;-80
2023/12/25 07:14:07;;;;;;;4.38;1.10;;;;;;;10.13;nan;99563.09;4995301;28;20214;-80
2023/12/25 07:16:33;;;;;;;1.08;0.98;;;;;;;10.09;nan;99566.84;4987439;28;20199;-80
2023/12/25 07:18:58;;;;;;;1.30;1.20;;;;;;;10.08;nan;99580.91;4990314;28;20210;-80
2023/12/25 07:21:24;;;;;;;1.50;1.27;;;;;;;10.09;nan;99569.47;4987721;28;20669;-81
2023/12/25 07:23:50;;;;;;;1.90;1.40;;;;;;;10.07;nan;99560.84;4986113;28;20195;-80
2023/12/25 07:26:17;;;;;;;4.15;1.33;;;;;;;10.01;nan;99567.31;4986953;28;20983;-80
2023/12/25 07:28:43;;;;;;;1.50;0.80;;;;;;;10.01;nan;99562.06;5005940;23;20240;-79
2023/12/25 07:31:08;;;;;;;1.50;1.27;;;;;;;9.98;nan;99564.88;4915502;28;20200;-79
2023/12/25 07:33:34;;;;;;;1.20;1.10;;;;;;;9.97;nan;99569.28;4930905;28;20464;-78
2023/12/25 07:36:01;;;;;;;1.13;1.00;;;;;;;9.93;nan;99557.28;4941902;28;20263;-79
2023/12/25 07:38:26;;;;;;;1.45;1.10;;;;;;;9.94;nan;99553.75;4940347;28;20205;-79
2023/12/25 07:40:52;;;;;;;1.53;1.10;;;;;;;9.95;nan;99560.66;4940782;28;20215;-79
2023/12/25 07:43:17;;;;;;;1.13;0.83;;;;;;;9.97;nan;99571.91;4942866;28;20243;-79
2023/12/25 07:45:43;;;;;;;1.67;0.90;;;;;;;9.97;nan;99578.94;4942972;28;20211;-78
2023/12/25 07:48:08;;;;;;;1.15;0.80;;;;;;;9.94;nan;99590.47;4936775;28;20421;-78
2023/12/25 07:50:34;;;;;;;1.77;1.13;;;;;;;10.00;nan;99593.66;4933722;28;20276;-80
2023/12/25 07:52:59;;;;;;;1.17;0.90;;;;;;;10.05;nan;99605.56;4936961;28;20299;-79
2023/12/25 07:55:25;;;;;;;1.10;1.00;;;;;;;10.06;nan;99611.66;4944081;28;20232;-78
2023/12/25 07:57:51;;;;;;;1.07;0.97;;;;;;;10.03;nan;99606.59;4938043;28;20208;-77
2023/12/25 08:00:16;;;;;;;2.27;1.20;;;;;;;10.03;nan;99611.84;4938027;28;20798;-79
2023/12/25 08:02:42;;;;;;;5.23;1.37;;;;;;;10.04;nan;99608.25;4942234;28;20580;-79
2023/12/25 08:05:07;;;;;;;1.53;1.00;;;;;;;10.04;nan;99608.25;4940821;28;20189;-77
2023/12/25 08:07:32;;;;;;;1.30;1.10;;;;;;;10.02;nan;99597.88;4937514;28;20451;-79
2023/12/25 08:09:58;;;;;;;1.13;1.00;;;;;;;10.07;nan;99605.44;4938131;28;20220;-78
2023/12/25 08:12:23;;;;;;;1.27;0.90;;;;;;;10.04;nan;99593.34;4932949;28;20646;-79
2023/12/25 08:14:49;;;;;;;1.30;1.20;;;;;;;10.07;nan;99600.19;4937840;28;20196;-80
2023/12/25 08:17:16;;;;;;;1.17;0.90;;;;;;;10.06;nan;99596.72;4944783;28;20751;-78
2023/12/25 08:19:42;;;;;;;1.15;0.90;;;;;;;10.03;nan;99589.06;4942422;28;20291;-78
2023/12/25 08:22:07;;;;;;;0.80;0.80;;;;;;;10.02;nan;99610.13;4945186;28;20735;-78
2023/12/25 08:24:35;;;;;;;1.10;1.00;;;;;;;10.05;nan;99617.84;4938454;28;20259;-80
2023/12/25 08:27:03;;;;;;;1.85;1.20;;;;;;;10.09;nan;99656.06;4938655;28;20247;-79
2023/12/25 08:29:31;;;;;;;1.77;1.33;;;;;;;10.11;nan;99652.41;4952388;28;20266;-79
2023/12/25 08:31:56;;;;;;;1.77;1.00;;;;;;;10.14;nan;99662.72;4960372;28;21241;-79
2023/12/25 08:34:24;;;;;;;1.17;0.93;;;;;;;10.19;nan;99657.19;4959245;28;20211;-77
2023/12/25 08:36:50;;;;;;;0.80;0.70;;;;;;;10.19;nan;99657.19;4960479;28;20265;-78
2023/12/25 08:39:16;;;;;;;1.93;1.40;;;;;;;10.22;nan;99657.00;4962409;28;20872;-80
2023/12/25 08:41:41;;;;;;;1.30;1.20;;;;;;;10.23;nan;99676.22;4957677;28;20228;-78
2023/12/25 08:44:08;;;;;;;2.30;1.30;;;;;;;10.22;nan;99678.00;4960603;28;20195;-79
2023/12/25 08:46:33;;;;;;;2.10;1.00;;;;;;;10.23;nan;99673.59;4959726;28;20232;-79
2023/12/25 08:48:59;;;;;;;1.67;1.27;;;;;;;10.22;nan;99658.78;4961327;28;20366;-77
2023/12/25 08:51:25;;;;;;;1.50;1.30;;;;;;;10.23;nan;99673.59;4958671;28;20286;-81
2023/12/25 08:53:51;;;;;;;3.05;0.95;;;;;;;10.25;nan;99664.69;4960006;28;20196;-77
2023/12/25 08:56:26;;;;;;;1.47;1.20;;;;;;;10.28;nan;99663.69;4958273;28;20204;-78
2023/12/25 08:58:52;;;;;;;1.80;1.50;;;;;;;10.33;nan;99665.09;4963468;28;20231;-78
2023/12/25 09:01:18;;;;;;;1.40;1.27;;;;;;;10.46;nan;99656.47;4963988;28;20318;-78
2023/12/25 09:03:43;;;;;;;1.90;0.80;;;;;;;10.56;nan;99639.19;4955452;28;22389;-79
2023/12/25 09:06:08;;;;;;;2.50;1.10;;;;;;;10.59;nan;99644.25;4962133;28;20403;-79
2023/12/25 09:08:34;;;;;;;1.40;1.10;;;;;;;10.69;nan;99645.34;4960934;28;20794;-77
2023/12/25 09:10:59;;;;;;;1.27;0.80;;;;;;;10.84;nan;99654.03;4957804;28;20207;-80
2023/12/25 09:13:25;;;;;;;1.30;1.07;;;;;;;11.14;nan;99663.53;4958590;28;20515;-80
2023/12/25 09:15:51;;;;;;;1.33;0.80;;;;;;;11.40;nan;99656.56;4954816;28;20322;-80
2023/12/25 09:18:16;;;;;;;0.87;0.80;;;;;;;11.40;nan;99659.19;4964407;28;20877;-79
2023/12/25 09:20:42;;;;;;;1.97;1.23;;;;;;;11.27;nan;99654.72;4961900;28;20471;-78
2023/12/25 09:23:07;;;;;;;2.37;1.67;;;;;;;11.12;nan;99665.41;4959821;28;20267;-81
2023/12/25 09:25:33;;;;;;;1.33;1.00;;;;;;;10.96;nan;99670.78;4964552;28;20199;-80
2023/12/25 09:27:58;;;;;;;1.50;1.10;;;;;;;10.85;nan;99656.59;4955723;28;20239;-80
2023/12/25 09:30:23;;;;;;;1.83;1.27;;;;;;;10.78;nan;99665.78;4956416;28;20514;-80
2023/12/25 09:32:49;;;;;;;1.97;1.27;;;;;;;10.74;nan;99664.28;4957989;28;20915;-80
2023/12/25 09:35:15;;;;;;;1.20;1.10;;;;;;;10.71;nan;99668.91;4954012;28;20211;-80
2023/12/25 09:37:41;;;;;;;1.70;1.10;;;;;;;10.71;nan;99672.38;4954308;28;20447;-80
2023/12/25 09:40:07;;;;;;;1.13;0.90;;;;;;;10.69;nan;99661.09;4954103;28;20215;-79
2023/12/25 09:42:33;;;;;;;0.80;0.80;;;;;;;10.66;nan;99656.03;4949595;28;20210;-79
2023/12/25 09:44:58;;;;;;;1.70;0.83;;;;;;;10.71;nan;99672.38;4952335;28;20200;-79
2023/12/25 09:47:25;;;;;;;1.20;0.70;;;;;;;10.72;nan;99671.44;4953485;28;20207;-81
2023/12/25 09:49:53;;;;;;;1.35;0.77;;;;;;;10.74;nan;99677.41;4955104;28;20397;-79
2023/12/25 09:52:20;;;;;;;3.75;1.15;;;;;;;10.81;nan;99670.84;4958315;28;20672;-79
2023/12/25 09:54:45;;;;;;;4.05;1.00;;;;;;;10.81;nan;99665.59;4948616;28;21285;-79
2023/12/25 09:57:13;;;;;;;1.10;0.70;;;;;;;10.89;nan;99654.59;4947176;28;20208;-79
2023/12/25 09:59:40;;;;;;;1.90;1.00;;;;;;;11.13;nan;99654.78;4951182;28;20223;-78
2023/12/25 10:02:06;;;;;;;1.80;1.08;;;;;;;11.65;nan;99650.50;4953103;28;20207;-78
2023/12/25 10:04:34;;;;;;;1.50;1.10;;;;;;;12.51;nan;99655.13;4952759;28;20207;-78
2023/12/25 10:06:59;;;;;;;1.25;1.02;;;;;;;13.28;nan;99650.44;4944872;28;20562;-81
2023/12/25 10:09:25;;;;;;;1.00;0.90;;;;;;;14.02;nan;99655.44;4953919;28;20211;-79
2023/12/25 10:11:50;;;;;;;1.17;0.97;;;;;;;14.42;nan;99647.88;4952596;28;20235;-82
2023/12/25 10:14:16;;;;;;;0.90;0.70;;;;;;;14.80;nan;99644.84;4951170;28;20690;-80
2023/12/25 10:16:45;;;;;;;1.42;0.93;;;;;;;14.82;nan;99629.72;4949066;28;20771;-81
2023/12/25 10:19:11;;;;;;;0.88;0.80;;;;;;;14.35;nan;99631.66;4942877;28;20208;-80
2023/12/25 10:21:44;;;;;;;1.15;1.05;;;;;;;13.72;nan;99633.06;4950200;28;20222;-80
2023/12/25 10:24:14;;;;;;;0.90;0.70;;;;;;;13.13;nan;99641.00;4947286;28;20783;-82
2023/12/25 10:26:40;;;;;;;1.23;0.80;;;;;;;12.74;nan;99654.31;4949187;28;20763;-78
2023/12/25 10:29:09;;;;;;;1.90;1.00;;;;;;;12.48;nan;99652.72;4948862;28;20716;-78
2023/12/25 10:31:36;;;;;;;1.02;0.93;;;;;;;12.32;nan;99648.53;4952068;28;20424;-78
2023/12/25 10:34:02;;;;;;;1.20;0.90;;;;;;;12.22;nan;99655.38;4955656;28;20747;-80
2023/12/25 10:36:28;;;;;;;2.80;1.17;;;;;;;12.12;nan;99649.06;4957669;28;20188;-82
2023/12/25 10:38:53;;;;;;;0.97;0.90;;;;;;;12.03;nan;99645.28;4953248;28;20220;-82
2023/12/25 10:41:21;;;;;;;1.43;0.93;;;;;;;11.94;nan;99646.75;4956732;28;20214;-79
2023/12/25 10:43:55;;;;;;;3.10;1.90;;;;;;;11.83;nan;99648.41;4954442;28;20211;-77
2023/12/25 10:46:22;;;;;;;1.63;1.10;;;;;;;11.76;nan;99647.13;4958331;28;20209;-80
2023/12/25 10:48:50;;;;;;;2.97;0.90;;;;;;;11.76;nan;99661.13;4952860;28;20197;-77
2023/12/25 10:51:20;;;;;;;2.28;1.10;;;;;;;11.81;nan;99656.41;4955823;28;21100;-78
2023/12/25 10:53:47;;;;;;;3.70;1.25;;;;;;;11.79;nan;99647.75;4956149;28;20200;-80
2023/12/25 10:56:13;;;;;;;0.88;0.88;;;;;;;11.78;nan;99664.50;4957103;28;20723;-78
2023/12/25 10:58:39;;;;;;;1.10;1.00;;;;;;;11.77;nan;99664.59;4957591;28;20199;-80
2023/12/25 11:01:05;;;;;;;1.43;1.03;;;;;;;11.80;nan;99653.88;4960834;28;21534;-81
2023/12/25 11:03:32;;;;;;;1.60;1.00;;;;;;;11.71;nan;99655.34;4955474;28;20290;-77
2023/12/25 11:05:59;;;;;;;1.15;0.80;;;;;;;11.71;nan;99650.06;4960009;28;20462;-78
2023/12/25 11:08:25;;;;;;;1.52;1.17;;;;;;;11.68;nan;99674.81;4955181;28;20219;-77
2023/12/25 11:10:51;;;;;;;1.87;0.90;;;;;;;11.72;nan;99667.56;4958889;28;20196;-79
2023/12/25 11:13:17;;;;;;;2.05;1.33;;;;;;;11.74;nan;99661.22;4958082;28;20890;-79
2023/12/25 11:15:42;;;;;;;2.17;0.90;;;;;;;11.77;nan;99665.44;4957174;28;20341;-78
2023/12/25 11:18:09;;;;;;;2.40;0.90;;;;;;;11.80;nan;99665.25;4960872;28;20222;-80
2023/12/25 11:20:35;;;;;;;3.42;1.25;;;;;;;11.81;nan;99664.31;4960601;28;20338;-80
2023/12/25 11:23:02;;;;;;;1.23;1.00;;;;;;;11.83;nan;99667.69;4964209;28;20234;-77
2023/12/25 11:25:33;;;;;;;0.95;0.80;;;;;;;11.81;nan;99660.84;4963600;28;20453;-80
2023/12/25 11:27:58;;;;;;;3.88;1.00;;;;;;;11.84;nan;99655.34;4962491;28;20238;-81
2023/12/25 11:30:25;;;;;;;1.93;0.90;;;;;;;11.82;nan;99657.25;4958630;28;20199;-81
2023/12/25 11:32:51;;;;;;;1.17;1.08;;;;;;;11.87;nan;99650.75;4961314;28;20927;-78
2023/12/25 11:35:28;;;;;;;2.83;1.20;;;;;;;11.89;nan;99653.28;4963887;28;20736;-78
2023/12/25 11:38:24;;;;;;;1.50;1.00;;;;;;;11.92;nan;99637.28;4963095;28;20472;-81
2023/12/25 11:40:50;;;;;;;1.10;1.00;;;;;;;11.94;nan;99636.22;4961323;28;20690;-78
2023/12/25 11:43:19;;;;;;;1.20;0.88;;;;;;;11.92;nan;99632.03;4960190;28;20576;-79
2023/12/25 11:45:52;;;;;;;0.80;0.70;;;;;;;11.88;nan;99626.13;4964742;28;20351;-81